Time;durP1;ratioP1;P1;durP2;ratioP2;P2;SDS_P1;SDS_P2;PMS_P1;PMS_P2;Temp;Humidity;BMP_temperature;BMP_pressure;BME280_temperature;BME280_humidity;BME280_pressure;Samples;Min_cycle;Max_cycle;Signal;HPM_P1;HPM_P2
2022/05/05 00:02:04;;;;;;;8.43;4.65;;;7.70;99.90;;;;;;5100784;28;20044;-76
2022/05/05 00:04:30;;;;;;;10.10;4.70;;;7.80;99.90;;;;;;5089642;28;20044;-77
2022/05/05 00:06:55;;;;;;;10.88;4.20;;;7.70;99.90;;;;;;5085922;28;20171;-77
2022/05/05 00:09:21;;;;;;;8.88;4.45;;;7.20;99.90;;;;;;5099779;28;20043;-77
2022/05/05 00:14:31;;;;;;;14.45;4.75;;;7.80;99.90;;;;;;5094116;28;20513;-77
2022/05/05 00:17:08;;;;;;;11.18;5.00;;;7.70;99.90;;;;;;5100052;28;20058;-77
2022/05/05 00:19:38;;;;;;;13.43;5.20;;;7.70;99.90;;;;;;5096357;28;20047;-77
2022/05/05 00:22:05;;;;;;;12.25;4.90;;;8.10;99.90;;;;;;5087457;28;20075;-77
2022/05/05 00:24:32;;;;;;;11.70;5.03;;;6.50;99.90;;;;;;5100455;28;20922;-77
2022/05/05 00:26:58;;;;;;;10.25;4.80;;;7.60;99.90;;;;;;5081576;28;20043;-77
2022/05/05 00:29:23;;;;;;;14.23;5.43;;;7.60;99.90;;;;;;5088996;28;20452;-76
2022/05/05 00:31:50;;;;;;;8.73;4.30;;;7.40;99.90;;;;;;5079638;28;20387;-77
2022/05/05 00:34:16;;;;;;;10.25;4.63;;;7.20;99.90;;;;;;5085280;27;20219;-77
2022/05/05 00:36:42;;;;;;;12.05;5.57;;;7.70;99.90;;;;;;5107067;28;20042;-77
2022/05/05 00:39:11;;;;;;;9.23;5.43;;;7.70;99.90;;;;;;5104503;28;20048;-77
2022/05/05 00:41:44;;;;;;;14.35;5.60;;;7.80;99.90;;;;;;5100585;27;20542;-77
2022/05/05 00:44:11;;;;;;;7.90;4.30;;;7.70;99.90;;;;;;5078830;28;20626;-77
2022/05/05 00:46:37;;;;;;;15.48;5.00;;;9.20;99.90;;;;;;5090412;28;20061;-77
2022/05/05 00:49:04;;;;;;;7.57;5.13;;;7.80;99.90;;;;;;5104194;28;20044;-77
2022/05/05 00:51:30;;;;;;;11.23;4.45;;;7.70;99.90;;;;;;5096222;28;20411;-77
2022/05/05 00:53:56;;;;;;;10.38;4.90;;;7.70;99.90;;;;;;5107712;28;20093;-77
2022/05/05 00:56:22;;;;;;;12.90;4.68;;;7.70;99.90;;;;;;5101999;27;20429;-77
2022/05/05 00:58:49;;;;;;;11.27;4.43;;;7.70;99.90;;;;;;5092434;28;20048;-77
2022/05/05 01:01:19;;;;;;;9.75;4.30;;;7.70;99.90;;;;;;5106866;28;20487;-76
2022/05/05 01:03:45;;;;;;;10.10;4.70;;;7.70;99.90;;;;;;5104722;28;20036;-76
2022/05/05 01:06:14;;;;;;;6.53;4.07;;;9.50;99.90;;;;;;5102663;27;20035;-76
2022/05/05 01:08:40;;;;;;;9.95;4.35;;;7.70;99.90;;;;;;5085488;28;20094;-76
2022/05/05 01:11:05;;;;;;;12.13;5.03;;;7.70;99.90;;;;;;5099111;28;20082;-76
2022/05/05 01:13:32;;;;;;;14.73;4.32;;;7.70;99.90;;;;;;5101448;28;20054;-76
2022/05/05 01:15:58;;;;;;;9.50;5.05;;;7.70;99.90;;;;;;5103860;28;20143;-76
2022/05/05 01:18:24;;;;;;;9.00;3.88;;;7.70;99.90;;;;;;5097055;27;20055;-76
2022/05/05 01:20:52;;;;;;;10.52;4.78;;;7.70;99.90;;;;;;5103533;28;20563;-76
2022/05/05 01:23:19;;;;;;;6.43;4.15;;;7.70;99.90;;;;;;5101380;28;20059;-75
2022/05/05 01:28:31;;;;;;;8.00;4.10;;;7.90;99.90;;;;;;5106168;27;20040;-77
2022/05/05 01:30:58;;;;;;;10.68;4.45;;;9.60;99.90;;;;;;5103547;28;20060;-77
2022/05/05 01:33:25;;;;;;;9.73;4.25;;;7.70;99.90;;;;;;5095156;27;20051;-76
2022/05/05 01:35:54;;;;;;;16.60;5.00;;;7.70;99.90;;;;;;5100392;27;20051;-76
2022/05/05 01:38:36;;;;;;;6.63;3.85;;;7.70;99.90;;;;;;5088909;28;20047;-76
2022/05/05 01:41:10;;;;;;;10.65;3.78;;;7.70;99.90;;;;;;5086817;28;20043;-76
2022/05/05 01:43:37;;;;;;;11.02;4.70;;;7.70;99.90;;;;;;5104550;28;20488;-76
2022/05/05 01:46:04;;;;;;;13.20;4.72;;;7.60;99.90;;;;;;5088329;28;20048;-76
2022/05/05 01:48:30;;;;;;;10.48;4.75;;;7.20;99.90;;;;;;5100461;27;20462;-77
2022/05/05 01:50:55;;;;;;;12.75;4.70;;;7.50;99.90;;;;;;5101246;28;20131;-76
2022/05/05 01:53:21;;;;;;;7.22;4.00;;;7.60;99.90;;;;;;5077185;28;20115;-75
2022/05/05 01:55:47;;;;;;;14.57;4.18;;;7.60;99.90;;;;;;5102358;27;20100;-76
2022/05/05 01:58:13;;;;;;;12.40;4.18;;;7.60;99.90;;;;;;5100166;28;20046;-78
2022/05/05 02:00:39;;;;;;;10.35;4.05;;;7.60;99.90;;;;;;5098457;28;20067;-77
2022/05/05 02:03:14;;;;;;;8.63;3.53;;;7.60;99.90;;;;;;5100303;28;20113;-77
2022/05/05 02:05:44;;;;;;;9.40;4.07;;;7.60;99.90;;;;;;5096429;28;20133;-77
2022/05/05 02:08:11;;;;;;;6.85;4.05;;;7.60;99.90;;;;;;5085520;28;20071;-77
2022/05/05 02:10:37;;;;;;;10.88;4.65;;;7.60;99.90;;;;;;5102933;28;20044;-77
2022/05/05 02:13:04;;;;;;;8.43;3.72;;;7.60;99.90;;;;;;5087432;28;20197;-76
2022/05/05 02:15:31;;;;;;;8.35;4.20;;;7.60;99.90;;;;;;5101824;28;20046;-77
2022/05/05 02:17:57;;;;;;;8.32;4.13;;;7.70;99.90;;;;;;5081727;28;20047;-76
2022/05/05 02:20:23;;;;;;;13.80;5.05;;;7.60;99.90;;;;;;5105654;28;20043;-77
2022/05/05 02:22:48;;;;;;;10.07;4.57;;;7.60;99.90;;;;;;5099305;28;20052;-77
2022/05/05 02:25:14;;;;;;;10.77;4.43;;;7.50;99.90;;;;;;5086819;28;20039;-77
2022/05/05 02:27:51;;;;;;;10.38;4.75;;;7.50;99.90;;;;;;5103260;28;20376;-77
2022/05/05 02:30:25;;;;;;;8.07;4.90;;;7.50;99.90;;;;;;5107814;28;20042;-77
2022/05/05 02:32:51;;;;;;;12.82;4.90;;;7.50;99.90;;;;;;5088727;28;20047;-76
2022/05/05 02:35:18;;;;;;;10.93;4.93;;;7.50;99.90;;;;;;5104660;28;20042;-77
2022/05/05 02:40:29;;;;;;;6.15;3.83;;;7.60;99.90;;;;;;5113268;27;20749;-77
2022/05/05 02:42:58;;;;;;;12.15;4.90;;;7.60;99.90;;;;;;5097098;27;20115;-78
2022/05/05 02:45:24;;;;;;;9.07;4.95;;;7.70;99.90;;;;;;5100831;28;20039;-77
2022/05/05 02:47:50;;;;;;;8.15;4.47;;;7.60;99.90;;;;;;5100486;28;20040;-77
2022/05/05 02:50:17;;;;;;;11.48;4.18;;;7.60;99.90;;;;;;5078823;28;20106;-77
2022/05/05 02:52:43;;;;;;;7.65;4.43;;;7.70;99.90;;;;;;5088252;28;20040;-77
2022/05/05 02:55:09;;;;;;;9.38;4.65;;;7.60;99.90;;;;;;5105230;28;20035;-77
2022/05/05 02:57:35;;;;;;;7.97;4.55;;;7.60;99.90;;;;;;5102294;28;20039;-78
2022/05/05 03:00:01;;;;;;;8.15;4.57;;;7.30;99.90;;;;;;5105497;28;20043;-77
2022/05/05 03:02:27;;;;;;;8.30;4.60;;;6.90;99.90;;;;;;5103405;28;20054;-77
2022/05/05 03:04:52;;;;;;;11.18;5.70;;;7.50;99.90;;;;;;5100964;27;20039;-77
2022/05/05 03:07:18;;;;;;;12.70;5.18;;;8.30;99.90;;;;;;5087597;28;20108;-77
2022/05/05 03:09:44;;;;;;;10.48;5.13;;;7.40;99.90;;;;;;5107698;28;20075;-77
2022/05/05 03:12:10;;;;;;;9.82;5.07;;;7.40;99.90;;;;;;5103862;28;20127;-76
2022/05/05 03:14:37;;;;;;;12.90;5.00;;;7.40;99.90;;;;;;5099479;28;20043;-76
2022/05/05 03:17:03;;;;;;;13.13;5.03;;;7.40;99.90;;;;;;5091292;27;20043;-77
2022/05/05 03:19:29;;;;;;;10.90;4.93;;;6.90;99.90;;;;;;5095874;28;20063;-76
2022/05/05 03:21:55;;;;;;;10.65;5.82;;;8.10;99.90;;;;;;5105016;28;20040;-76
2022/05/05 03:24:21;;;;;;;7.32;5.28;;;7.30;99.90;;;;;;5100366;28;20032;-77
2022/05/05 03:26:47;;;;;;;9.77;5.07;;;7.30;99.90;;;;;;5102550;28;20051;-76
2022/05/05 03:29:13;;;;;;;14.68;5.60;;;7.20;99.90;;;;;;5068259;28;20036;-77
2022/05/05 03:31:39;;;;;;;10.75;5.45;;;8.70;99.90;;;;;;5104921;28;20043;-78
2022/05/05 03:34:06;;;;;;;8.60;5.43;;;6.70;99.90;;;;;;5085567;28;20031;-76
2022/05/05 03:36:32;;;;;;;13.43;5.72;;;7.30;99.90;;;;;;5085782;28;20867;-77
2022/05/05 03:38:58;;;;;;;8.85;5.45;;;7.00;99.90;;;;;;5103956;28;20096;-77
2022/05/05 03:41:24;;;;;;;10.95;5.25;;;7.00;99.90;;;;;;5078839;28;20036;-77
2022/05/05 03:43:52;;;;;;;14.68;6.22;;;8.40;99.90;;;;;;5102793;28;20148;-76
2022/05/05 03:46:18;;;;;;;12.70;5.65;;;7.10;99.90;;;;;;5102772;28;20115;-77
2022/05/05 03:48:44;;;;;;;13.23;5.28;;;7.10;99.90;;;;;;5078568;28;20618;-77
2022/05/05 03:51:14;;;;;;;9.05;5.32;;;6.70;99.90;;;;;;5106720;28;20499;-77
2022/05/05 03:53:39;;;;;;;8.38;4.90;;;7.40;99.90;;;;;;5095381;28;20104;-76
2022/05/05 03:56:05;;;;;;;8.40;5.20;;;7.10;99.90;;;;;;5101656;28;20496;-77
2022/05/05 03:58:31;;;;;;;9.15;5.75;;;8.90;99.90;;;;;;5104274;28;20039;-76
2022/05/05 04:00:57;;;;;;;10.15;5.85;;;9.00;99.90;;;;;;5087225;28;20122;-76
2022/05/05 04:03:32;;;;;;;7.32;5.30;;;7.40;99.90;;;;;;5105122;28;20472;-76
2022/05/05 04:06:07;;;;;;;12.95;5.63;;;7.20;99.90;;;;;;5105943;28;20050;-76
2022/05/05 04:08:34;;;;;;;15.13;6.03;;;7.30;99.90;;;;;;5101291;28;20064;-76
2022/05/05 04:11:00;;;;;;;9.95;5.65;;;8.10;99.90;;;;;;5105115;28;20130;-77
2022/05/05 04:13:26;;;;;;;10.00;5.93;;;7.10;99.90;;;;;;5106633;28;20599;-77
2022/05/05 04:15:52;;;;;;;10.77;5.47;;;6.80;99.90;;;;;;5103022;28;20372;-77
2022/05/05 04:18:18;;;;;;;11.73;5.57;;;7.80;99.90;;;;;;5106529;27;20096;-77
2022/05/05 04:20:44;;;;;;;10.63;6.05;;;5.90;99.90;;;;;;5109156;28;20044;-76
2022/05/05 04:23:10;;;;;;;11.45;5.53;;;7.10;99.90;;;;;;5105486;28;20466;-76
2022/05/05 04:25:40;;;;;;;10.57;5.50;;;7.00;99.90;;;;;;5106291;27;20039;-76
2022/05/05 04:28:07;;;;;;;8.90;5.43;;;7.10;99.90;;;;;;5106121;28;20107;-76
2022/05/05 04:30:33;;;;;;;8.05;5.60;;;7.20;99.90;;;;;;5106739;28;20039;-76
2022/05/05 04:32:58;;;;;;;15.93;5.53;;;7.20;99.90;;;;;;5104704;28;20466;-76
2022/05/05 04:35:24;;;;;;;10.18;6.05;;;7.20;99.90;;;;;;5099792;27;20865;-76
2022/05/05 04:37:50;;;;;;;12.65;6.05;;;7.20;99.90;;;;;;5104558;28;20041;-76
2022/05/05 04:40:15;;;;;;;16.92;6.57;;;7.30;99.90;;;;;;5105999;28;20534;-76
2022/05/05 04:42:41;;;;;;;14.10;6.10;;;7.30;99.90;;;;;;5102887;27;20071;-76
2022/05/05 04:45:07;;;;;;;10.18;5.78;;;7.40;99.90;;;;;;5105936;28;20077;-76
2022/05/05 04:47:33;;;;;;;14.88;6.78;;;6.80;99.90;;;;;;5106430;28;20522;-77
2022/05/05 04:49:59;;;;;;;13.25;6.80;;;7.30;99.90;;;;;;5106830;28;20887;-76
2022/05/05 04:52:25;;;;;;;11.18;5.47;;;7.30;99.90;;;;;;5108759;28;20051;-76
2022/05/05 04:54:53;;;;;;;12.40;6.30;;;7.80;99.90;;;;;;5108774;28;20573;-76
2022/05/05 04:57:19;;;;;;;10.30;6.20;;;7.40;99.90;;;;;;5088664;28;20102;-76
2022/05/05 04:59:45;;;;;;;9.52;5.22;;;9.00;99.90;;;;;;5089335;28;20411;-76
2022/05/05 05:02:11;;;;;;;13.77;6.30;;;7.40;99.90;;;;;;5107762;28;20042;-76
2022/05/05 05:04:36;;;;;;;9.48;5.38;;;7.40;99.90;;;;;;5100576;28;20071;-76
2022/05/05 05:07:02;;;;;;;10.55;5.47;;;7.50;99.90;;;;;;5109084;28;20028;-77
2022/05/05 05:09:28;;;;;;;12.15;5.40;;;7.50;99.90;;;;;;5103717;27;20073;-76
2022/05/05 05:11:54;;;;;;;16.08;6.80;;;7.50;99.90;;;;;;5107454;28;20040;-76
2022/05/05 05:14:20;;;;;;;11.70;6.20;;;7.50;99.90;;;;;;5103344;28;20055;-76
2022/05/05 05:16:46;;;;;;;18.55;6.07;;;7.40;99.90;;;;;;5109238;28;20050;-76
2022/05/05 05:19:11;;;;;;;16.20;6.47;;;7.50;99.90;;;;;;5097359;27;20545;-77
2022/05/05 05:21:37;;;;;;;9.65;5.68;;;9.20;99.90;;;;;;5098391;27;20538;-76
2022/05/05 05:24:03;;;;;;;9.57;5.70;;;7.20;99.90;;;;;;5113425;27;20047;-76
2022/05/05 05:26:29;;;;;;;17.27;6.47;;;7.60;99.90;;;;;;5078416;28;20149;-77
2022/05/05 05:28:55;;;;;;;15.90;6.32;;;7.60;99.90;;;;;;5095125;27;20035;-76
2022/05/05 05:31:21;;;;;;;11.35;6.35;;;7.70;99.90;;;;;;5096972;27;20052;-75
2022/05/05 05:33:48;;;;;;;13.48;6.13;;;7.70;99.90;;;;;;5082607;27;20042;-76
2022/05/05 05:36:13;;;;;;;15.10;5.63;;;7.70;99.90;;;;;;5084765;28;20047;-76
2022/05/05 05:38:39;;;;;;;15.25;5.18;;;7.70;99.90;;;;;;5100572;27;20134;-76
2022/05/05 05:41:05;;;;;;;8.68;5.90;;;7.70;99.90;;;;;;5093746;27;20115;-76
2022/05/05 05:43:31;;;;;;;9.38;5.97;;;7.50;99.90;;;;;;5093368;27;20557;-76
2022/05/05 05:45:56;;;;;;;8.75;5.50;;;7.80;99.90;;;;;;5079699;28;20043;-76
2022/05/05 05:48:22;;;;;;;17.75;6.07;;;9.20;99.90;;;;;;5086941;28;20042;-76
2022/05/05 05:50:47;;;;;;;11.73;6.15;;;7.90;99.90;;;;;;5104499;28;20424;-76
2022/05/05 05:53:13;;;;;;;18.67;7.40;;;7.60;99.90;;;;;;5096159;28;20124;-76
2022/05/05 05:55:38;;;;;;;14.77;6.35;;;7.90;99.90;;;;;;5096571;28;20380;-76
2022/05/05 05:58:04;;;;;;;12.90;5.72;;;8.00;99.90;;;;;;5098243;28;20040;-76
2022/05/05 06:00:32;;;;;;;10.02;6.50;;;8.10;99.90;;;;;;5105711;28;20126;-76
2022/05/05 06:05:43;;;;;;;15.60;6.43;;;8.10;99.90;;;;;;4396180;27;10000616;-72
2022/05/05 06:08:08;;;;;;;10.88;6.07;;;8.20;99.90;;;;;;5095918;28;20184;-72
2022/05/05 06:10:35;;;;;;;10.02;6.10;;;8.20;99.90;;;;;;5107505;28;20046;-73
2022/05/05 06:13:00;;;;;;;10.02;5.68;;;8.30;99.90;;;;;;5099224;28;20070;-73
2022/05/05 06:15:26;;;;;;;12.13;6.10;;;8.30;99.90;;;;;;5097509;27;20546;-73
2022/05/05 06:17:52;;;;;;;17.10;5.93;;;8.40;99.90;;;;;;5103514;28;20054;-73
2022/05/05 06:20:18;;;;;;;13.57;6.72;;;8.40;99.90;;;;;;5104893;28;20035;-74
2022/05/05 06:22:44;;;;;;;16.90;6.38;;;8.50;99.90;;;;;;5098090;28;20682;-76
2022/05/05 06:25:13;;;;;;;16.95;8.90;;;8.50;99.90;;;;;;5101277;28;20058;-74
2022/05/05 06:27:40;;;;;;;15.85;10.85;;;8.60;99.90;;;;;;5078826;28;20535;-74
2022/05/05 06:30:09;;;;;;;9.60;6.25;;;8.70;99.90;;;;;;5098644;28;20091;-75
2022/05/05 06:32:35;;;;;;;14.90;6.28;;;8.60;99.90;;;;;;5109249;27;20547;-75
2022/05/05 06:35:00;;;;;;;18.25;5.97;;;8.70;99.90;;;;;;5093122;27;20061;-76
2022/05/05 06:37:26;;;;;;;14.52;7.13;;;8.80;99.90;;;;;;5095415;27;20039;-75
2022/05/05 06:39:52;;;;;;;14.23;5.88;;;8.90;99.90;;;;;;5100168;28;20036;-75
2022/05/05 06:42:18;;;;;;;11.13;7.05;;;8.90;99.90;;;;;;5095562;28;20043;-75
2022/05/05 06:44:44;;;;;;;12.48;5.60;;;9.00;99.90;;;;;;5074397;28;20035;-76
2022/05/05 06:47:11;;;;;;;18.25;7.65;;;9.10;99.90;;;;;;5095164;28;20040;-76
2022/05/05 06:49:36;;;;;;;13.60;6.25;;;9.60;99.90;;;;;;5075021;28;20412;-76
2022/05/05 06:52:02;;;;;;;15.10;6.28;;;9.20;99.90;;;;;;5080471;28;20397;-76
2022/05/05 06:54:28;;;;;;;12.32;6.97;;;9.30;99.90;;;;;;5066450;28;20476;-77
2022/05/05 06:56:54;;;;;;;11.65;6.03;;;10.80;99.90;;;;;;5098953;28;20028;-78
2022/05/05 06:59:20;;;;;;;12.82;5.90;;;9.40;99.90;;;;;;5107730;27;20553;-77
2022/05/05 07:01:52;;;;;;;12.02;6.57;;;9.50;99.90;;;;;;5109746;27;20126;-76
2022/05/05 07:07:05;;;;;;;13.70;6.35;;;9.70;99.90;;;;;;5101543;28;20035;-77
2022/05/05 07:12:16;;;;;;;13.43;6.28;;;9.80;99.90;;;;;;5097264;28;20044;-76
2022/05/05 07:14:45;;;;;;;11.82;6.50;;;9.90;99.90;;;;;;5100589;27;20122;-78
2022/05/05 07:17:12;;;;;;;13.07;6.68;;;9.90;99.90;;;;;;5100664;28;20047;-79
2022/05/05 07:19:39;;;;;;;14.95;6.65;;;10.00;99.90;;;;;;5101760;27;20620;-75
2022/05/05 07:22:05;;;;;;;16.70;6.32;;;10.10;99.90;;;;;;5105826;28;20027;-76
2022/05/05 07:24:31;;;;;;;10.52;5.85;;;10.10;99.90;;;;;;5103847;28;21818;-74
2022/05/05 07:26:57;;;;;;;14.52;6.70;;;10.20;99.90;;;;;;5108386;28;20035;-74
2022/05/05 07:29:23;;;;;;;10.32;5.55;;;10.30;99.90;;;;;;5086130;28;20039;-74
2022/05/05 07:31:49;;;;;;;14.68;6.85;;;10.30;99.90;;;;;;5097797;28;20050;-74
2022/05/05 07:34:15;;;;;;;13.38;6.38;;;10.40;99.90;;;;;;5097741;28;20031;-77
2022/05/05 07:36:41;;;;;;;15.57;6.05;;;10.90;99.90;;;;;;5088267;28;20096;-76
2022/05/05 07:39:07;;;;;;;13.45;6.47;;;11.90;99.90;;;;;;5088832;28;20032;-76
2022/05/05 07:41:32;;;;;;;14.13;5.80;;;10.60;99.90;;;;;;5106825;28;20101;-76
2022/05/05 07:43:58;;;;;;;20.73;7.10;;;10.70;99.90;;;;;;5111426;28;20063;-76
2022/05/05 07:46:24;;;;;;;12.75;6.38;;;10.80;99.90;;;;;;5111548;28;20077;-76
2022/05/05 07:48:50;;;;;;;16.27;7.03;;;10.80;99.90;;;;;;5111319;28;20050;-76
2022/05/05 07:51:16;;;;;;;15.57;6.20;;;10.90;99.90;;;;;;5111437;28;20052;-76
2022/05/05 07:54:34;;;;;;;11.05;6.25;;;11.00;99.90;;;;;;5110960;28;20590;-76
2022/05/05 07:56:27;;;;;;;19.77;6.35;;;11.10;99.90;;;;;;5112341;28;20086;-76
2022/05/05 07:58:53;;;;;;;18.15;6.07;;;12.30;99.90;;;;;;5110943;28;20472;-76
2022/05/05 08:01:19;;;;;;;14.50;5.32;;;11.20;99.90;;;;;;5111258;28;20097;-75
2022/05/05 08:03:44;;;;;;;16.35;5.70;;;11.30;99.90;;;;;;5093931;28;20047;-76
2022/05/05 08:06:10;;;;;;;15.55;6.38;;;12.80;99.90;;;;;;5093886;28;20043;-76
2022/05/05 08:08:36;;;;;;;15.82;5.25;;;11.50;99.90;;;;;;5112026;28;20035;-76
2022/05/05 08:11:01;;;;;;;12.20;5.28;;;11.50;99.90;;;;;;5110487;28;20058;-76
2022/05/05 08:13:27;;;;;;;10.57;5.40;;;11.60;99.90;;;;;;5112002;28;20043;-76
2022/05/05 08:15:52;;;;;;;20.85;4.88;;;11.60;99.90;;;;;;5110214;28;20043;-76
2022/05/05 08:18:18;;;;;;;9.20;4.88;;;11.50;99.90;;;;;;5110939;28;20527;-76
2022/05/05 08:20:44;;;;;;;16.70;6.45;;;11.70;99.90;;;;;;5111246;28;20043;-76
2022/05/05 08:23:09;;;;;;;11.55;4.93;;;10.50;99.90;;;;;;5073396;28;20040;-76
2022/05/05 08:28:28;;;;;;;11.57;4.85;;;11.80;99.90;;;;;;5110426;28;20043;-76
2022/05/05 08:30:53;;;;;;;12.48;5.57;;;11.80;99.90;;;;;;5093680;28;20040;-76
2022/05/05 08:33:19;;;;;;;7.07;4.75;;;12.20;99.90;;;;;;5110748;28;20372;-76
2022/05/05 08:35:45;;;;;;;11.50;4.88;;;11.80;99.90;;;;;;5110964;28;20437;-76
2022/05/05 08:38:10;;;;;;;9.05;5.28;;;10.70;99.90;;;;;;5110643;28;20515;-76
2022/05/05 08:40:40;;;;;;;9.20;4.75;;;12.00;99.90;;;;;;5110571;28;20051;-76
2022/05/05 08:43:05;;;;;;;13.98;5.65;;;12.10;99.90;;;;;;5109125;28;20562;-77
2022/05/05 08:45:32;;;;;;;14.38;5.43;;;12.20;99.90;;;;;;5112055;28;20031;-76
2022/05/05 08:47:59;;;;;;;9.93;4.88;;;12.30;99.90;;;;;;5102741;28;20059;-76
2022/05/05 08:50:25;;;;;;;15.00;5.53;;;12.30;99.90;;;;;;5109810;28;20055;-76
2022/05/05 08:52:51;;;;;;;10.77;4.75;;;12.50;99.90;;;;;;5093044;28;20134;-76
2022/05/05 08:55:20;;;;;;;11.55;5.30;;;12.50;99.90;;;;;;5110436;28;20044;-76
2022/05/05 08:57:46;;;;;;;10.90;4.32;;;12.60;99.90;;;;;;5091995;28;20050;-76
2022/05/05 09:00:14;;;;;;;12.70;5.32;;;12.70;99.90;;;;;;5109819;28;20044;-77
2022/05/05 09:02:40;;;;;;;8.40;4.18;;;12.80;99.90;;;;;;5109273;28;20479;-76
2022/05/05 09:05:07;;;;;;;9.25;4.10;;;12.90;99.90;;;;;;5093027;28;20039;-76
2022/05/05 09:07:50;;;;;;;9.77;6.03;;;12.90;99.90;;;;;;5092814;28;20503;-76
2022/05/05 09:10:18;;;;;;;10.35;5.07;;;13.80;99.90;;;;;;5102953;28;20413;-77
2022/05/05 09:13:00;;;;;;;8.50;5.40;;;13.20;99.90;;;;;;5092498;28;20043;-76
2022/05/05 09:15:34;;;;;;;6.60;5.05;;;13.20;99.90;;;;;;5110084;28;20048;-77
2022/05/05 09:18:17;;;;;;;14.00;6.32;;;13.30;99.90;;;;;;5108410;28;20047;-77
2022/05/05 09:20:45;;;;;;;14.70;5.32;;;14.00;99.90;;;;;;5109626;28;20433;-77
2022/05/05 09:23:29;;;;;;;13.25;6.20;;;13.60;99.90;;;;;;5092879;28;20031;-76
2022/05/05 09:25:55;;;;;;;20.77;8.05;;;13.70;99.90;;;;;;5091093;28;20051;-76
2022/05/05 09:28:23;;;;;;;11.15;6.00;;;13.90;99.90;;;;;;5109900;28;20044;-76
2022/05/05 09:30:51;;;;;;;10.65;6.47;;;14.00;99.90;;;;;;5110044;27;20048;-76
2022/05/05 09:33:35;;;;;;;9.68;6.15;;;14.00;99.90;;;;;;5092264;28;20403;-76
2022/05/05 09:36:13;;;;;;;11.43;5.95;;;14.20;99.90;;;;;;5108687;28;20043;-76
2022/05/05 09:38:50;;;;;;;7.68;6.15;;;14.20;99.90;;;;;;5092132;28;20112;-76
2022/05/05 09:41:19;;;;;;;10.75;6.60;;;14.30;99.90;;;;;;5085878;28;20046;-76
2022/05/05 09:43:53;;;;;;;10.40;6.43;;;14.30;99.90;;;;;;5110902;28;20076;-76
2022/05/05 09:46:37;;;;;;;12.80;6.00;;;14.40;99.90;;;;;;5109474;28;20052;-76
2022/05/05 09:49:12;;;;;;;11.40;5.80;;;14.50;99.90;;;;;;5110069;28;20079;-76
2022/05/05 09:57:53;;;;;;;6.65;5.55;;;14.90;99.90;;;;;;5104936;28;20311;-76
2022/05/05 10:05:50;;;;;;;14.52;5.60;;;15.20;99.90;;;;;;5109336;28;20142;-76
2022/05/05 10:08:21;;;;;;;8.50;5.88;;;15.30;99.90;;;;;;5108156;28;20046;-77
2022/05/05 10:10:46;;;;;;;14.98;6.78;;;15.40;99.90;;;;;;5108690;28;20032;-77
2022/05/05 10:13:13;;;;;;;11.05;6.40;;;15.50;99.90;;;;;;5107701;28;20043;-77
2022/05/05 10:15:39;;;;;;;9.07;6.05;;;15.60;99.90;;;;;;5110197;28;20092;-77
2022/05/05 10:18:06;;;;;;;15.05;6.32;;;15.50;99.90;;;;;;5108181;28;20050;-77
2022/05/05 10:20:33;;;;;;;10.05;5.70;;;15.60;99.90;;;;;;5108572;28;20502;-77
2022/05/05 10:23:14;;;;;;;13.02;6.28;;;15.70;99.90;;;;;;5091460;28;20303;-77
2022/05/05 10:25:40;;;;;;;9.18;5.90;;;16.50;99.90;;;;;;5109957;28;20036;-77
2022/05/05 10:28:37;;;;;;;8.65;6.20;;;15.90;99.90;;;;;;5089849;28;20086;-77
2022/05/05 10:31:02;;;;;;;7.70;5.05;;;15.90;99.90;;;;;;5091157;28;20048;-77
2022/05/05 10:34:02;;;;;;;9.77;6.13;;;15.90;99.90;;;;;;5108827;28;20043;-77
2022/05/05 10:36:29;;;;;;;8.02;5.72;;;16.00;99.90;;;;;;5102724;28;20521;-77
2022/05/05 10:38:55;;;;;;;7.53;6.20;;;16.10;99.90;;;;;;5090928;28;20054;-77
2022/05/05 10:41:39;;;;;;;12.25;6.55;;;16.00;99.90;;;;;;5107909;28;20093;-77
2022/05/05 10:44:16;;;;;;;7.95;6.15;;;15.70;99.90;;;;;;5109264;28;20047;-78
2022/05/05 10:47:04;;;;;;;9.80;6.78;;;16.10;99.90;;;;;;5108292;28;20078;-77
2022/05/05 10:52:09;;;;;;;9.48;6.78;;;16.70;99.90;;;;;;5109042;28;20459;-78
2022/05/05 10:54:45;;;;;;;10.73;7.28;;;16.50;99.90;;;;;;5109444;28;20047;-78
2022/05/05 10:57:26;;;;;;;9.02;7.10;;;16.20;99.90;;;;;;5106998;28;20468;-78
2022/05/05 11:00:22;;;;;;;11.75;7.53;;;16.30;99.90;;;;;;5107527;28;20406;-78
2022/05/05 11:03:03;;;;;;;7.97;6.00;;;16.40;99.90;;;;;;5106989;28;20200;-77
2022/05/05 11:05:36;;;;;;;7.53;6.80;;;16.40;99.90;;;;;;5101054;28;20052;-77
2022/05/05 11:08:08;;;;;;;8.50;6.85;;;16.60;99.90;;;;;;5107256;28;20146;-77
2022/05/05 11:10:48;;;;;;;9.85;6.43;;;16.70;99.90;;;;;;5107300;28;20083;-78
2022/05/05 11:13:49;;;;;;;11.52;7.28;;;16.70;99.90;;;;;;5107771;28;20043;-77
2022/05/05 11:22:08;;;;;;;10.32;7.28;;;17.00;99.90;;;;;;5108395;28;20126;-76
2022/05/05 11:24:34;;;;;;;8.25;6.53;;;16.70;99.90;;;;;;5087155;28;20055;-76
2022/05/05 11:27:01;;;;;;;10.65;6.70;;;16.70;99.90;;;;;;5079066;28;20043;-76
2022/05/05 11:29:33;;;;;;;8.05;6.25;;;16.90;99.90;;;;;;5107699;28;20479;-77
2022/05/05 11:32:04;;;;;;;10.15;6.60;;;17.20;99.90;;;;;;5089964;28;20464;-77
2022/05/05 11:34:39;;;;;;;8.23;6.07;;;17.30;99.90;;;;;;5108942;28;20082;-76
2022/05/05 11:37:06;;;;;;;7.15;6.25;;;17.30;99.70;;;;;;5106623;28;20135;-77
2022/05/05 11:39:33;;;;;;;10.55;6.97;;;17.60;99.60;;;;;;5106939;28;20044;-77
2022/05/05 11:42:09;;;;;;;10.55;6.95;;;17.30;99.10;;;;;;5107281;28;20047;-77
2022/05/05 11:44:39;;;;;;;10.15;6.63;;;17.40;99.40;;;;;;5106653;28;20562;-77
2022/05/05 11:47:14;;;;;;;8.82;5.55;;;17.90;99.60;;;;;;5106747;28;20488;-77
2022/05/05 11:49:43;;;;;;;7.80;5.53;;;17.80;99.20;;;;;;5107458;28;20130;-77
2022/05/05 11:52:19;;;;;;;10.95;6.65;;;19.00;99.80;;;;;;5106150;28;20056;-77
2022/05/05 11:54:52;;;;;;;10.77;5.70;;;18.50;99.50;;;;;;5090547;28;20341;-77
2022/05/05 11:57:40;;;;;;;9.43;5.27;;;18.60;98.30;;;;;;5107100;28;20047;-78
2022/05/05 12:02:52;;;;;;;9.80;6.32;;;19.10;97.70;;;;;;5092734;28;20044;-77
2022/05/05 12:05:21;;;;;;;9.98;6.78;;;20.20;97.50;;;;;;5090669;28;20043;-77
2022/05/05 12:07:46;;;;;;;10.63;7.00;;;19.60;96.90;;;;;;5089442;28;20499;-77
2022/05/05 12:10:16;;;;;;;11.02;7.40;;;19.70;96.10;;;;;;5106927;28;20044;-76
2022/05/05 12:12:48;;;;;;;9.65;8.10;;;19.40;94.70;;;;;;5107777;28;20048;-77
2022/05/05 12:15:16;;;;;;;9.55;6.63;;;20.60;95.30;;;;;;5106627;28;20036;-77
2022/05/05 12:17:52;;;;;;;7.95;6.45;;;19.10;95.10;;;;;;5107102;28;20048;-78
2022/05/05 12:20:19;;;;;;;8.63;6.22;;;19.10;95.50;;;;;;5108268;28;20036;-78
2022/05/05 12:22:54;;;;;;;14.80;7.57;;;20.30;96.40;;;;;;5107109;28;20153;-77
2022/05/05 12:25:20;;;;;;;11.38;6.47;;;19.00;95.80;;;;;;5108190;28;20039;-77
2022/05/05 12:28:02;;;;;;;5.95;4.60;;;18.90;95.90;;;;;;5106024;28;20118;-77
2022/05/05 12:30:48;;;;;;;14.80;6.75;;;19.10;95.40;;;;;;5103189;28;20131;-77
2022/05/05 12:33:17;;;;;;;8.55;6.00;;;19.30;94.50;;;;;;5109042;28;20079;-77
2022/05/05 12:35:46;;;;;;;9.80;5.50;;;18.70;94.70;;;;;;5111794;28;20323;-77
2022/05/05 12:38:13;;;;;;;6.40;5.55;;;18.60;95.00;;;;;;5110382;28;20480;-77
2022/05/05 12:40:42;;;;;;;11.02;5.97;;;18.60;94.90;;;;;;5109966;28;20035;-78
2022/05/05 12:43:13;;;;;;;7.53;5.65;;;18.80;94.90;;;;;;5110562;28;20067;-77
2022/05/05 12:45:40;;;;;;;10.75;6.18;;;18.90;94.40;;;;;;5110530;28;20043;-77
2022/05/05 12:48:08;;;;;;;7.65;5.43;;;19.00;94.30;;;;;;5109470;28;20085;-77
2022/05/05 12:50:52;;;;;;;6.10;5.03;;;19.00;93.90;;;;;;5110243;28;20279;-78
2022/05/05 13:01:47;;;;;;;6.55;5.55;;;19.50;93.90;;;;;;5104180;28;20048;-77
2022/05/05 13:04:15;;;;;;;7.47;5.63;;;19.70;93.90;;;;;;5093166;28;20131;-78
2022/05/05 13:06:42;;;;;;;10.32;7.18;;;19.70;93.00;;;;;;5059653;28;20027;-78
2022/05/05 13:09:09;;;;;;;7.50;6.53;;;19.60;92.40;;;;;;5109421;28;20086;-77
2022/05/05 13:11:40;;;;;;;6.90;6.10;;;19.60;92.90;;;;;;5110053;28;20100;-77
2022/05/05 13:14:05;;;;;;;7.60;5.07;;;19.90;93.10;;;;;;5109175;28;20043;-78
2022/05/05 13:16:32;;;;;;;12.63;6.10;;;19.90;91.80;;;;;;5092752;28;20042;-78
2022/05/05 13:18:59;;;;;;;9.73;6.72;;;19.90;92.10;;;;;;5092764;28;20073;-78
2022/05/05 13:21:27;;;;;;;7.07;6.10;;;20.00;91.80;;;;;;5109149;28;20070;-78
2022/05/05 13:23:52;;;;;;;9.10;6.85;;;19.90;91.30;;;;;;5109274;28;20036;-77
2022/05/05 13:26:18;;;;;;;11.07;9.95;;;19.70;91.50;;;;;;5109588;28;20365;-78
2022/05/05 13:28:44;;;;;;;8.95;7.53;;;20.30;92.00;;;;;;5092093;28;20054;-78
2022/05/05 13:31:09;;;;;;;8.57;5.93;;;19.30;91.90;;;;;;5109277;28;20047;-77
2022/05/05 13:33:35;;;;;;;8.80;7.30;;;19.30;92.30;;;;;;5101368;28;20035;-78
2022/05/05 13:36:01;;;;;;;7.75;6.95;;;19.20;92.20;;;;;;5109499;28;20043;-78
2022/05/05 13:38:27;;;;;;;6.30;5.68;;;19.10;92.40;;;;;;5111029;28;20513;-78
2022/05/05 13:40:53;;;;;;;10.98;6.88;;;19.10;92.60;;;;;;5108086;28;20182;-78
2022/05/05 13:43:19;;;;;;;8.55;6.03;;;19.30;92.60;;;;;;5109992;28;20036;-77